createdAt,value
2023-03-25T00:02:24.867Z,3.22
2023-03-25T00:05:00.552Z,4.38
2023-03-25T00:07:33.370Z,3.30
2023-03-25T00:10:07.694Z,3.50
2023-03-25T00:12:41.078Z,3.67
2023-03-25T00:15:16.598Z,3.60
2023-03-25T00:17:50.770Z,3.17
2023-03-25T00:20:23.540Z,3.85
2023-03-25T00:22:56.212Z,3.53
2023-03-25T00:25:28.887Z,3.67
2023-03-25T00:28:01.574Z,4.18
2023-03-25T00:30:34.283Z,3.28
2023-03-25T00:33:10.739Z,3.97
2023-03-25T00:35:44.686Z,3.92
2023-03-25T00:38:17.328Z,3.97
2023-03-25T00:40:50.548Z,3.97
2023-03-25T00:43:23.329Z,4.43
2023-03-25T00:45:57.022Z,3.85
2023-03-25T00:48:31.123Z,5.07
2023-03-25T00:51:08.675Z,4.53
2023-03-25T00:53:42.204Z,4.80
2023-03-25T00:56:15.712Z,6.63
2023-03-25T00:58:48.468Z,4.18
2023-03-25T01:01:27.210Z,4.05
2023-03-25T01:04:01.443Z,3.70
2023-03-25T01:06:36.533Z,4.07
2023-03-25T01:09:10.898Z,4.43
2023-03-25T01:11:45.878Z,3.55
2023-03-25T01:14:20.833Z,3.42
2023-03-25T01:16:53.734Z,4.57
2023-03-25T01:19:28.182Z,3.90
2023-03-25T01:22:01.349Z,3.92
2023-03-25T01:27:06.642Z,4.20
2023-03-25T01:29:39.532Z,4.75
2023-03-25T01:32:12.196Z,4.63
2023-03-25T01:34:46.973Z,4.25
2023-03-25T01:37:19.667Z,5.13
2023-03-25T01:39:52.382Z,4.35
2023-03-25T01:42:25.237Z,4.25
2023-03-25T01:45:21.962Z,4.85
2023-03-25T01:48:06.566Z,4.32
2023-03-25T01:50:43.954Z,4.70
2023-03-25T01:53:17.622Z,4.63
2023-03-25T01:55:53.036Z,3.60
2023-03-25T01:58:28.848Z,5.22
2023-03-25T02:01:02.235Z,4.05
2023-03-25T02:03:37.334Z,5.53
2023-03-25T02:06:16.865Z,4.03
2023-03-25T02:08:50.370Z,5.32
2023-03-25T02:11:25.897Z,5.55
2023-03-25T02:14:04.017Z,4.43
2023-03-25T02:16:45.865Z,6.05
2023-03-25T02:19:48.120Z,4.95
2023-03-25T02:22:51.663Z,4.38
2023-03-25T02:25:39.632Z,4.85
2023-03-25T02:28:25.586Z,5.13
2023-03-25T02:31:37.153Z,5.45
2023-03-25T02:34:33.131Z,6.07
2023-03-25T02:37:36.395Z,6.03
2023-03-25T02:40:18.482Z,5.35
2023-03-25T02:42:55.996Z,6.57
2023-03-25T02:45:32.478Z,6.43
2023-03-25T02:48:12.575Z,7.43
2023-03-25T02:50:49.815Z,6.38
2023-03-25T02:53:27.314Z,5.22
2023-03-25T02:56:08.693Z,6.35
2023-03-25T02:58:42.796Z,5.65
2023-03-25T03:01:17.101Z,6.28
2023-03-25T03:03:50.122Z,7.38
2023-03-25T03:06:24.809Z,5.95
2023-03-25T03:09:12.754Z,5.40
2023-03-25T03:11:59.349Z,5.95
2023-03-25T03:14:42.484Z,6.57
2023-03-25T03:19:57.661Z,5.95
2023-03-25T03:22:40.721Z,6.03
2023-03-25T03:25:24.630Z,7.03
2023-03-25T03:28:06.142Z,7.32
2023-03-25T03:30:47.247Z,6.53
2023-03-25T03:33:25.428Z,6.07
2023-03-25T03:36:02.049Z,7.18
2023-03-25T03:38:39.434Z,6.32
2023-03-25T03:41:18.945Z,5.35
2023-03-25T03:43:57.067Z,7.05
2023-03-25T03:46:34.146Z,6.20
2023-03-25T03:49:11.194Z,6.32
2023-03-25T03:51:48.108Z,7.95
2023-03-25T03:54:25.221Z,6.30
2023-03-25T03:57:02.784Z,6.30
2023-03-25T03:59:43.347Z,6.35
2023-03-25T04:02:27.121Z,7.57
2023-03-25T04:05:00.767Z,7.72
2023-03-25T04:07:39.282Z,6.28
2023-03-25T04:10:15.731Z,5.60
2023-03-25T04:12:52.782Z,6.25
2023-03-25T04:15:26.936Z,7.53
2023-03-25T04:17:59.633Z,6.35
2023-03-25T04:20:36.350Z,6.35
2023-03-25T04:23:09.774Z,8.23
2023-03-25T04:25:42.614Z,6.47
2023-03-25T04:28:17.701Z,7.03
2023-03-25T04:30:55.574Z,6.18
2023-03-25T04:33:29.978Z,6.65
2023-03-25T04:36:03.603Z,7.05
2023-03-25T04:38:40.701Z,7.05
2023-03-25T04:41:15.030Z,6.88
2023-03-25T04:43:47.853Z,6.10
2023-03-25T04:46:21.928Z,8.65
2023-03-25T04:48:56.917Z,6.95
2023-03-25T04:51:30.888Z,7.53
2023-03-25T04:54:03.812Z,6.90
2023-03-25T04:59:10.159Z,7.10
2023-03-25T05:01:46.180Z,7.35
2023-03-25T05:04:19.419Z,8.63
2023-03-25T05:06:52.227Z,6.22
2023-03-25T05:09:25.010Z,7.72
2023-03-25T05:11:57.743Z,7.95
2023-03-25T05:14:30.508Z,6.22
2023-03-25T05:17:04.604Z,5.90
2023-03-25T05:19:43.768Z,6.13
2023-03-25T05:22:16.408Z,5.88
2023-03-25T05:24:49.099Z,6.72
2023-03-25T05:27:21.747Z,5.68
2023-03-25T05:29:54.535Z,7.40
2023-03-25T05:32:33.401Z,7.50
2023-03-25T05:35:06.979Z,5.95
2023-03-25T05:37:39.671Z,7.07
2023-03-25T05:42:49.092Z,5.22
2023-03-25T05:45:22.186Z,6.65
2023-03-25T05:47:56.912Z,6.40
2023-03-25T05:50:29.986Z,5.82
2023-03-25T05:53:02.843Z,5.25
2023-03-25T05:58:12.021Z,5.30
2023-03-25T06:00:46.975Z,6.18
2023-03-25T06:03:21.362Z,5.55
2023-03-25T06:05:54.239Z,7.03
2023-03-25T06:08:26.876Z,6.50
2023-03-25T06:11:00.876Z,6.20
2023-03-25T06:13:33.987Z,5.80
2023-03-25T06:16:08.853Z,5.93
2023-03-25T06:18:42.941Z,6.50
2023-03-25T06:21:15.840Z,6.40
2023-03-25T06:28:56.446Z,6.18
2023-03-25T06:31:33.313Z,6.75
2023-03-25T06:34:07.935Z,6.88
2023-03-25T06:36:40.856Z,6.03
2023-03-25T06:39:14.099Z,6.50
2023-03-25T06:41:47.529Z,5.78
2023-03-25T06:44:26.406Z,6.45
2023-03-25T06:47:19.389Z,6.32
2023-03-25T06:49:56.329Z,5.88
2023-03-25T06:52:29.086Z,6.50
2023-03-25T06:55:04.668Z,5.78
2023-03-25T06:57:44.396Z,4.90
2023-03-25T07:00:20.314Z,6.82
2023-03-25T07:02:53.152Z,5.78
2023-03-25T07:08:00.253Z,5.90
2023-03-25T07:10:33.006Z,6.80
2023-03-25T07:13:05.920Z,5.13
2023-03-25T07:18:11.648Z,6.40
2023-03-25T07:20:46.367Z,5.75
2023-03-25T07:23:19.697Z,6.63
2023-03-25T07:30:58.479Z,5.88
2023-03-25T07:33:31.164Z,5.85
2023-03-25T07:36:06.598Z,5.43
2023-03-25T07:38:39.798Z,7.47
2023-03-25T07:41:14.136Z,5.18
2023-03-25T07:43:57.961Z,5.13
2023-03-25T07:46:37.011Z,6.85
2023-03-25T07:49:09.787Z,6.68
2023-03-25T07:51:44.297Z,6.10
2023-03-25T07:54:17.022Z,6.57
2023-03-25T07:56:49.855Z,5.63
2023-03-25T07:59:22.610Z,7.63
2023-03-25T08:01:55.423Z,6.85
2023-03-25T08:04:28.142Z,5.05
2023-03-25T08:07:02.485Z,6.30
2023-03-25T08:09:35.360Z,5.60
2023-03-25T08:12:09.522Z,7.30
2023-03-25T08:14:42.843Z,7.28
2023-03-25T08:17:15.919Z,5.70
2023-03-25T08:22:22.471Z,8.13
2023-03-25T08:24:55.272Z,6.80
2023-03-25T08:27:27.970Z,7.70
2023-03-25T08:30:00.841Z,6.72
2023-03-25T08:32:36.482Z,6.35
2023-03-25T08:35:09.807Z,6.70
2023-03-25T08:37:43.830Z,6.38
2023-03-25T08:40:17.986Z,7.85
2023-03-25T08:42:50.696Z,7.57
2023-03-25T08:45:23.348Z,7.57
2023-03-25T08:50:29.059Z,7.07
2023-03-25T08:53:04.133Z,8.73
2023-03-25T08:55:37.238Z,6.32
2023-03-25T08:58:10.513Z,7.22
2023-03-25T09:00:43.304Z,6.93
2023-03-25T09:03:16.127Z,7.65
2023-03-25T09:05:49.091Z,6.43
2023-03-25T09:08:23.577Z,7.28
2023-03-25T09:10:56.743Z,6.55
2023-03-25T09:13:29.422Z,7.82
2023-03-25T09:16:02.485Z,9.23
2023-03-25T09:18:36.729Z,7.80
2023-03-25T09:21:09.590Z,8.00
2023-03-25T09:23:43.614Z,7.88
2023-03-25T09:26:16.557Z,7.82
2023-03-25T09:28:49.281Z,7.85
2023-03-25T09:31:22.205Z,7.03
2023-03-25T09:36:27.693Z,9.93
2023-03-25T09:39:01.969Z,6.93
2023-03-25T09:42:02.728Z,7.45
2023-03-25T09:44:40.021Z,7.20
2023-03-25T09:47:15.882Z,6.63
2023-03-25T09:49:53.784Z,7.97
2023-03-25T09:52:29.771Z,7.60
2023-03-25T09:55:08.790Z,8.27
2023-03-25T09:57:49.707Z,8.27
2023-03-25T10:00:25.833Z,8.30
2023-03-25T10:03:09.074Z,9.10
2023-03-25T10:06:07.891Z,8.40
2023-03-25T10:08:53.250Z,8.77
2023-03-25T10:11:33.832Z,7.15
2023-03-25T10:14:12.239Z,7.53
2023-03-25T10:16:57.406Z,7.53
2023-03-25T10:19:44.286Z,8.27
2023-03-25T10:22:18.898Z,7.43
2023-03-25T10:24:57.230Z,7.90
2023-03-25T10:27:37.195Z,8.20
2023-03-25T10:30:14.745Z,8.95
2023-03-25T10:32:51.714Z,7.93
2023-03-25T10:35:27.127Z,8.77
2023-03-25T10:38:08.744Z,7.60
2023-03-25T10:40:50.071Z,8.25
2023-03-25T10:43:28.383Z,8.70
2023-03-25T10:46:08.147Z,7.18
2023-03-25T10:48:41.052Z,9.32
2023-03-25T10:53:49.919Z,7.95
2023-03-25T10:56:26.062Z,8.40
2023-03-25T10:59:05.255Z,7.40
2023-03-25T11:01:40.042Z,7.60
2023-03-25T11:04:14.952Z,8.23
2023-03-25T11:06:54.052Z,8.65
2023-03-25T11:09:30.228Z,8.40
2023-03-25T11:12:06.813Z,9.65
2023-03-25T11:14:41.546Z,7.88
2023-03-25T11:17:17.974Z,8.68
2023-03-25T11:19:56.423Z,7.15
2023-03-25T11:22:31.331Z,9.50
2023-03-25T11:25:07.177Z,10.32
2023-03-25T11:27:46.652Z,8.20
2023-03-25T11:30:23.412Z,7.32
2023-03-25T11:33:03.542Z,7.82
2023-03-25T11:35:43.241Z,8.25
2023-03-25T11:38:20.018Z,7.20
2023-03-25T11:40:56.107Z,8.63
2023-03-25T11:43:34.356Z,7.90
2023-03-25T11:46:14.983Z,7.53
2023-03-25T11:48:51.477Z,7.28
2023-03-25T11:51:27.993Z,8.30
2023-03-25T11:54:03.321Z,6.15
2023-03-25T11:56:41.467Z,6.80
2023-03-25T11:59:22.828Z,6.88
2023-03-25T12:02:08.018Z,7.07
2023-03-25T12:04:56.985Z,7.65
2023-03-25T12:07:42.675Z,7.53
2023-03-25T12:10:21.481Z,7.93
2023-03-25T12:13:04.069Z,6.45
2023-03-25T12:15:42.492Z,8.77
2023-03-25T12:18:38.969Z,7.68
2023-03-25T12:21:27.477Z,6.07
2023-03-25T12:24:11.485Z,8.43
2023-03-25T12:26:57.257Z,6.93
2023-03-25T12:29:44.699Z,8.55
2023-03-25T12:32:28.921Z,9.13
2023-03-25T12:35:20.852Z,7.88
2023-03-25T12:38:17.092Z,8.18
2023-03-25T12:41:14.161Z,8.40
2023-03-25T12:43:59.566Z,8.43
2023-03-25T12:47:15.456Z,8.13
2023-03-25T12:50:17.708Z,8.85
2023-03-25T12:53:00.818Z,8.25
2023-03-25T12:55:50.046Z,7.18
2023-03-25T12:58:52.898Z,6.55
2023-03-25T13:01:34.141Z,7.93
2023-03-25T13:04:24.298Z,7.63
2023-03-25T13:07:07.288Z,6.38
2023-03-25T13:09:52.251Z,7.20
2023-03-25T13:12:32.263Z,7.80
2023-03-25T13:15:17.840Z,5.50
2023-03-25T13:17:58.785Z,7.93
2023-03-25T13:20:36.402Z,6.47
2023-03-25T13:23:14.783Z,7.05
2023-03-25T13:25:53.146Z,8.63
2023-03-25T13:28:30.960Z,6.80
2023-03-25T13:31:04.400Z,7.75
2023-03-25T13:33:44.361Z,7.13
2023-03-25T13:36:23.061Z,7.63
2023-03-25T13:39:00.495Z,7.95
2023-03-25T13:41:38.884Z,7.78
2023-03-25T13:44:15.680Z,8.55
2023-03-25T13:46:51.582Z,7.28
2023-03-25T13:49:30.051Z,8.68
2023-03-25T13:52:03.703Z,6.93
2023-03-25T13:54:42.808Z,6.63
2023-03-25T13:57:46.731Z,6.97
2023-03-25T14:00:38.328Z,7.22
2023-03-25T14:03:44.257Z,6.90
2023-03-25T14:06:35.071Z,6.30
2023-03-25T14:10:01.780Z,6.10
2023-03-25T14:12:39.452Z,5.75
2023-03-25T14:15:17.994Z,6.53
2023-03-25T14:17:52.838Z,6.55
2023-03-25T14:20:30.909Z,8.40
2023-03-25T14:23:06.278Z,6.90
2023-03-25T14:25:44.469Z,8.02
2023-03-25T14:28:21.387Z,8.57
2023-03-25T14:31:17.973Z,7.30
2023-03-25T14:34:39.345Z,8.50
2023-03-25T14:37:30.911Z,6.80
2023-03-25T14:40:55.345Z,7.28
2023-03-25T14:43:38.513Z,8.05
2023-03-25T14:46:21.888Z,8.65
2023-03-25T14:49:19.378Z,8.98
2023-03-25T14:51:55.551Z,8.43
2023-03-25T14:54:31.327Z,7.70
2023-03-25T14:57:09.045Z,8.82
2023-03-25T14:59:46.272Z,9.93
2023-03-25T15:02:23.674Z,8.00
2023-03-25T15:04:59.334Z,8.27
2023-03-25T15:07:45.234Z,8.73
2023-03-25T15:10:25.397Z,9.43
2023-03-25T15:13:05.048Z,9.75
2023-03-25T15:15:57.895Z,9.18
2023-03-25T15:19:00.521Z,8.45
2023-03-25T15:21:36.454Z,6.95
2023-03-25T15:24:11.859Z,7.18
2023-03-25T15:26:47.251Z,8.20
2023-03-25T15:29:53.051Z,8.48
2023-03-25T15:32:42.937Z,7.72
2023-03-25T15:35:37.770Z,7.88
2023-03-25T15:38:25.595Z,8.25
2023-03-25T15:41:12.060Z,8.38
2023-03-25T15:44:30.396Z,8.02
2023-03-25T15:47:17.174Z,7.22
2023-03-25T15:50:08.014Z,8.43
2023-03-25T15:52:59.678Z,7.47
2023-03-25T15:55:38.269Z,8.00
2023-03-25T15:58:20.195Z,7.07
2023-03-25T16:00:57.199Z,5.95
2023-03-25T16:03:32.648Z,6.57
2023-03-25T16:06:12.864Z,7.30
2023-03-25T16:08:49.749Z,7.50
2023-03-25T16:11:27.049Z,8.50
2023-03-25T16:14:09.349Z,7.25
2023-03-25T16:16:46.050Z,7.07
2023-03-25T16:19:22.563Z,7.93
2023-03-25T16:21:56.621Z,7.40
2023-03-25T16:24:34.036Z,6.70
2023-03-25T16:27:14.562Z,7.60
2023-03-25T16:29:49.590Z,7.78
2023-03-25T16:32:24.543Z,7.65
2023-03-25T16:34:57.821Z,6.88
2023-03-25T16:37:34.069Z,8.15
2023-03-25T16:40:08.215Z,6.90
2023-03-25T16:42:41.036Z,7.35
2023-03-25T16:45:16.478Z,10.02
2023-03-25T16:47:50.397Z,9.18
2023-03-25T16:50:24.544Z,7.55
2023-03-25T16:53:02.727Z,7.47
2023-03-25T16:55:47.244Z,8.23
2023-03-25T16:58:22.389Z,8.13
2023-03-25T17:00:57.036Z,6.70
2023-03-25T17:03:45.009Z,7.93
2023-03-25T17:06:26.071Z,7.07
2023-03-25T17:09:00.877Z,6.68
2023-03-25T17:11:34.201Z,7.82
2023-03-25T17:14:09.924Z,6.55
2023-03-25T17:16:43.420Z,7.10
2023-03-25T17:19:18.982Z,7.35
2023-03-25T17:22:16.592Z,7.30
2023-03-25T17:24:55.651Z,7.22
2023-03-25T17:27:34.665Z,8.43
2023-03-25T17:30:19.384Z,7.45
2023-03-25T17:32:53.285Z,8.50
2023-03-25T17:35:28.041Z,6.60
2023-03-25T17:38:01.361Z,9.45
2023-03-25T17:40:35.944Z,9.20
2023-03-25T17:43:08.933Z,8.25
2023-03-25T17:48:17.995Z,9.47
2023-03-25T17:50:54.894Z,8.38
2023-03-25T17:53:28.194Z,8.45
2023-03-25T17:56:03.609Z,7.10
2023-03-25T17:58:36.394Z,6.65
2023-03-25T18:01:12.515Z,8.05
2023-03-25T18:03:45.434Z,7.53
2023-03-25T18:06:18.305Z,7.70
2023-03-25T18:08:51.663Z,7.63
2023-03-25T18:11:26.266Z,7.43
2023-03-25T18:13:59.063Z,7.80
2023-03-25T18:16:31.886Z,7.78
2023-03-25T18:21:38.298Z,7.57
2023-03-25T18:24:14.786Z,6.03
2023-03-25T18:26:51.743Z,6.43
2023-03-25T18:29:28.267Z,6.03
2023-03-25T18:32:01.076Z,6.30
2023-03-25T18:37:07.668Z,6.72
2023-03-25T18:39:40.423Z,5.47
2023-03-25T18:42:14.772Z,5.68
2023-03-25T18:44:49.337Z,5.70
2023-03-25T18:47:24.250Z,5.57
2023-03-25T18:49:57.094Z,3.78
2023-03-25T18:55:06.112Z,6.30
2023-03-25T18:57:42.331Z,4.63
2023-03-25T19:00:21.375Z,4.72
2023-03-25T19:02:54.924Z,5.25
2023-03-25T19:05:28.429Z,4.90
2023-03-25T19:08:01.450Z,4.30
2023-03-25T19:10:36.124Z,4.97
2023-03-25T19:13:10.290Z,4.78
2023-03-25T19:15:44.639Z,4.82
2023-03-25T19:18:20.531Z,5.10
2023-03-25T19:20:54.978Z,4.57
2023-03-25T19:23:28.816Z,4.22
2023-03-25T19:26:01.869Z,4.93
2023-03-25T19:28:35.990Z,3.80
2023-03-25T19:31:27.982Z,3.63
2023-03-25T19:34:01.289Z,3.10
2023-03-25T19:36:37.531Z,3.10
2023-03-25T19:39:10.786Z,2.90
2023-03-25T19:41:44.863Z,3.10
2023-03-25T19:44:18.904Z,4.13
2023-03-25T19:46:51.895Z,3.53
2023-03-25T19:52:21.055Z,3.38
2023-03-25T19:54:53.766Z,3.20
2023-03-25T19:57:27.760Z,3.33
2023-03-25T20:00:03.095Z,2.28
2023-03-25T20:02:37.797Z,2.58
2023-03-25T20:05:13.075Z,2.25
2023-03-25T20:07:47.605Z,2.38
2023-03-25T20:10:22.160Z,3.45
2023-03-25T20:12:57.241Z,3.50
2023-03-25T20:15:34.219Z,2.83
2023-03-25T20:18:07.416Z,2.65
2023-03-25T20:20:41.366Z,2.55
2023-03-25T20:23:14.319Z,2.80
2023-03-25T20:28:23.899Z,2.97
2023-03-25T20:30:58.068Z,2.45
2023-03-25T20:33:39.967Z,2.40
2023-03-25T20:36:13.851Z,4.35
2023-03-25T20:38:56.673Z,2.60
2023-03-25T20:41:30.723Z,2.00
2023-03-25T20:44:04.081Z,2.13
2023-03-25T20:46:39.292Z,2.75
2023-03-25T20:49:12.992Z,2.33
2023-03-25T20:51:47.497Z,1.77
2023-03-25T20:54:20.305Z,2.75
2023-03-25T20:56:53.029Z,1.75
2023-03-25T20:59:26.213Z,1.98
2023-03-25T21:02:00.717Z,2.25
2023-03-25T21:04:36.845Z,1.67
2023-03-25T21:07:10.243Z,1.60
2023-03-25T21:09:43.174Z,1.73
2023-03-25T21:14:48.407Z,2.33
2023-03-25T21:17:22.664Z,1.70
2023-03-25T21:19:55.933Z,1.38
2023-03-25T21:22:30.874Z,1.40
2023-03-25T21:25:03.583Z,1.67
2023-03-25T21:27:39.542Z,1.90
2023-03-25T21:30:13.477Z,1.60
2023-03-25T21:32:47.595Z,1.98
2023-03-25T21:35:20.826Z,1.80
2023-03-25T21:37:53.733Z,1.27
2023-03-25T21:40:26.757Z,1.40
2023-03-25T21:43:12.766Z,2.17
2023-03-25T21:45:46.409Z,1.50
2023-03-25T21:48:21.676Z,2.33
2023-03-25T21:50:57.235Z,2.10
2023-03-25T21:53:34.385Z,1.95
2023-03-25T21:56:10.341Z,1.77
2023-03-25T21:58:43.089Z,1.83
2023-03-25T22:01:19.606Z,2.38
2023-03-25T22:03:55.352Z,2.35
2023-03-25T22:06:30.827Z,2.40
2023-03-25T22:09:06.066Z,1.85
2023-03-25T22:11:39.792Z,3.28
2023-03-25T22:14:12.624Z,2.13
2023-03-25T22:16:45.589Z,2.35
2023-03-25T22:21:52.196Z,2.40
2023-03-25T22:24:24.963Z,3.03
2023-03-25T22:26:57.710Z,1.80
2023-03-25T22:29:30.414Z,2.10
2023-03-25T22:32:07.021Z,2.03
2023-03-25T22:34:41.319Z,1.75
2023-03-25T22:37:14.040Z,2.13
2023-03-25T22:39:46.753Z,1.40
2023-03-25T22:42:19.439Z,1.60
2023-03-25T22:44:52.227Z,1.50
2023-03-25T22:47:25.224Z,2.17
2023-03-25T22:52:31.905Z,2.00
2023-03-25T22:55:06.377Z,2.40
2023-03-25T22:57:39.188Z,1.35
2023-03-25T23:00:15.498Z,1.85
2023-03-25T23:02:48.527Z,1.45
2023-03-25T23:05:22.937Z,1.33
2023-03-25T23:07:55.712Z,1.83
2023-03-25T23:10:28.527Z,2.00
2023-03-25T23:13:01.326Z,2.58
2023-03-25T23:15:33.992Z,2.28
2023-03-25T23:18:06.763Z,3.20
2023-03-25T23:20:40.877Z,1.52
2023-03-25T23:23:13.750Z,1.83
2023-03-25T23:28:19.468Z,2.20
2023-03-25T23:33:25.011Z,1.15
2023-03-25T23:36:02.773Z,1.95
2023-03-25T23:38:35.772Z,2.17
2023-03-25T23:41:10.321Z,2.15
2023-03-25T23:43:43.717Z,2.17
2023-03-25T23:46:18.175Z,2.80
2023-03-25T23:48:54.719Z,2.67
2023-03-25T23:51:31.233Z,2.72
2023-03-25T23:54:05.124Z,2.88
2023-03-25T23:56:38.347Z,2.47
2023-03-25T23:59:11.989Z,3.00
